NCAR-RAP Real-Time Weather Data

Output produced by METARs form (14 October 2019  22:47 UTC)
found at http://weather.rap.ucar.edu/surface/
 
KBFF 142153Z AUTO 28011KT 10SM CLR 24/M09 A2980 RMK AO2 SLP069 T02441094